createdAt,value
2018-09-04T00:01:04.016Z,6.83
2018-09-04T00:03:40.434Z,7.53
2018-09-04T00:06:17.101Z,6.70
2018-09-04T00:08:52.990Z,7.45
2018-09-04T00:11:29.305Z,7.40
2018-09-04T00:14:05.286Z,6.83
2018-09-04T00:16:41.486Z,8.05
2018-09-04T00:19:17.899Z,6.80
2018-09-04T00:21:53.869Z,7.30
2018-09-04T00:24:29.935Z,7.17
2018-09-04T00:27:06.282Z,6.72
2018-09-04T00:29:42.509Z,7.15
2018-09-04T00:32:18.938Z,6.90
2018-09-04T00:34:55.112Z,6.67
2018-09-04T00:37:31.352Z,7.65
2018-09-04T00:40:07.567Z,6.50
2018-09-04T00:42:43.329Z,7.10
2018-09-04T00:45:19.485Z,7.10
2018-09-04T00:47:55.855Z,6.97
2018-09-04T00:50:32.118Z,7.17
2018-09-04T00:53:08.753Z,7.08
2018-09-04T00:55:44.969Z,7.22
2018-09-04T00:58:21.152Z,7.47
2018-09-04T01:00:57.303Z,7.00
2018-09-04T01:03:33.530Z,7.20
2018-09-04T01:06:09.300Z,7.20
2018-09-04T01:08:45.342Z,6.95
2018-09-04T01:11:21.314Z,7.37
2018-09-04T01:13:57.349Z,6.53
2018-09-04T01:16:33.535Z,7.78
2018-09-04T01:19:09.934Z,6.87
2018-09-04T01:21:46.129Z,7.20
2018-09-04T01:24:22.537Z,7.15
2018-09-04T01:26:59.111Z,7.28
2018-09-04T01:29:35.853Z,7.28
2018-09-04T01:32:12.125Z,9.28
2018-09-04T01:34:48.339Z,6.80
2018-09-04T01:37:24.553Z,6.60
2018-09-04T01:40:00.869Z,7.00
2018-09-04T01:42:37.382Z,6.65
2018-09-04T01:45:14.108Z,7.00
2018-09-04T01:47:50.426Z,7.22
2018-09-04T01:50:26.609Z,7.47
2018-09-04T01:53:03.054Z,7.90
2018-09-04T01:55:39.042Z,6.80
2018-09-04T01:58:15.111Z,6.40
2018-09-04T02:00:51.141Z,6.97
2018-09-04T02:03:27.052Z,7.47
2018-09-04T02:06:03.831Z,7.03
2018-09-04T02:08:40.151Z,7.97
2018-09-04T02:11:16.145Z,7.42
2018-09-04T02:13:53.025Z,7.30
2018-09-04T02:16:29.700Z,7.67
2018-09-04T02:19:05.954Z,8.50
2018-09-04T02:21:41.858Z,6.33
2018-09-04T02:24:18.339Z,7.97
2018-09-04T02:26:54.963Z,7.57
2018-09-04T02:29:31.195Z,6.58
2018-09-04T02:32:07.375Z,7.75
2018-09-04T02:34:44.129Z,7.37
2018-09-04T02:37:20.059Z,7.27
2018-09-04T02:39:56.167Z,7.42
2018-09-04T02:42:32.218Z,7.87
2018-09-04T02:45:08.186Z,7.00
2018-09-04T02:47:44.207Z,7.17
2018-09-04T02:50:20.172Z,7.00
2018-09-04T02:52:56.445Z,8.45
2018-09-04T02:55:32.911Z,7.97
2018-09-04T03:00:56.350Z,7.75
2018-09-04T03:03:32.844Z,8.90
2018-09-04T03:06:09.064Z,7.62
2018-09-04T03:08:45.185Z,6.60
2018-09-04T03:11:21.363Z,8.55
2018-09-04T03:13:57.695Z,7.95
2018-09-04T03:16:34.077Z,7.12
2018-09-04T03:19:10.381Z,6.40
2018-09-04T03:21:46.369Z,7.50
2018-09-04T03:24:22.349Z,6.20
2018-09-04T03:26:58.505Z,7.67
2018-09-04T03:29:35.360Z,7.20
2018-09-04T03:33:28.002Z,6.60
2018-09-04T03:36:04.247Z,7.83
2018-09-04T03:38:40.186Z,8.00
2018-09-04T03:41:16.090Z,6.90
2018-09-04T03:43:52.185Z,6.95
2018-09-04T03:46:28.091Z,6.95
2018-09-04T03:49:04.095Z,6.63
2018-09-04T03:51:40.100Z,6.70
2018-09-04T03:54:16.185Z,7.90
2018-09-04T03:56:52.086Z,8.65
2018-09-04T03:59:28.171Z,7.05
2018-09-04T04:02:04.417Z,6.65
2018-09-04T04:04:40.394Z,6.70
2018-09-04T04:07:16.190Z,6.80
2018-09-04T04:09:52.281Z,7.10
2018-09-04T04:12:28.523Z,7.05
2018-09-04T04:15:04.789Z,6.90
2018-09-04T04:17:41.389Z,7.00
2018-09-04T04:20:17.642Z,7.08
2018-09-04T04:22:53.873Z,8.93
2018-09-04T04:25:30.090Z,7.90
2018-09-04T04:28:06.377Z,6.95
2018-09-04T04:30:42.585Z,7.23
2018-09-04T04:33:18.997Z,7.08
2018-09-04T04:35:55.073Z,7.83
2018-09-04T04:38:31.198Z,7.92
2018-09-04T04:41:07.586Z,11.30
2018-09-04T04:43:43.850Z,14.15
2018-09-04T04:46:20.170Z,12.50
2018-09-04T04:48:56.488Z,14.07
2018-09-04T04:53:46.546Z,15.50
2018-09-04T04:56:23.230Z,16.62
2018-09-04T04:58:59.846Z,14.20
2018-09-04T05:01:36.082Z,16.45
2018-09-04T05:04:12.944Z,18.45
2018-09-04T05:06:49.230Z,19.30
2018-09-04T05:09:25.589Z,21.62
2018-09-04T05:12:02.205Z,19.00
2018-09-04T05:14:38.257Z,18.00
2018-09-04T05:17:14.201Z,18.60
2018-09-04T05:19:51.153Z,17.60
2018-09-04T05:22:28.188Z,18.95
2018-09-04T05:25:04.191Z,19.85
2018-09-04T05:27:40.237Z,20.85
2018-09-04T05:30:16.221Z,17.60
2018-09-04T05:33:12.343Z,19.10
2018-09-04T05:35:51.661Z,18.63
2018-09-04T05:38:27.703Z,17.60
2018-09-04T05:41:03.978Z,19.75
2018-09-04T05:43:43.553Z,17.25
2018-09-04T05:46:24.663Z,18.77
2018-09-04T05:49:01.453Z,17.57
2018-09-04T05:51:37.442Z,17.92
2018-09-04T05:54:13.835Z,16.30
2018-09-04T05:56:50.275Z,13.05
2018-09-04T05:59:26.930Z,12.23
2018-09-04T06:02:03.215Z,10.10
2018-09-04T06:04:39.088Z,8.40
2018-09-04T06:07:15.804Z,7.10
2018-09-04T06:09:52.185Z,7.08
2018-09-04T06:12:28.446Z,7.97
2018-09-04T06:15:04.436Z,5.53
2018-09-04T06:17:40.570Z,5.60
2018-09-04T06:20:16.634Z,4.90
2018-09-04T06:22:52.983Z,4.20
2018-09-04T06:25:28.986Z,5.30
2018-09-04T06:28:05.255Z,4.40
2018-09-04T06:30:41.406Z,5.40
2018-09-04T06:33:17.314Z,3.50
2018-09-04T06:35:54.241Z,3.20
2018-09-04T06:38:30.414Z,4.53
2018-09-04T06:41:06.869Z,2.25
2018-09-04T06:43:43.242Z,2.90
2018-09-04T06:46:20.157Z,3.67
2018-09-04T06:48:56.247Z,2.60
2018-09-04T06:51:32.423Z,3.90
2018-09-04T06:54:08.417Z,3.00
2018-09-04T06:56:44.227Z,2.50
2018-09-04T06:59:20.544Z,3.37
2018-09-04T07:01:56.510Z,2.67
2018-09-04T07:04:32.630Z,3.37
2018-09-04T07:07:09.008Z,2.72
2018-09-04T07:09:45.006Z,16.15
2018-09-04T07:12:21.191Z,11.05
2018-09-04T07:14:57.850Z,16.97
2018-09-04T07:17:33.975Z,13.45
2018-09-04T07:20:10.163Z,12.80
2018-09-04T07:22:46.259Z,12.90
2018-09-04T07:25:22.483Z,10.78
2018-09-04T07:27:58.382Z,9.67
2018-09-04T07:30:34.597Z,13.30
2018-09-04T07:33:11.266Z,11.73
2018-09-04T07:35:47.610Z,10.90
2018-09-04T07:38:23.512Z,12.23
2018-09-04T07:41:00.032Z,12.23
2018-09-04T07:43:36.035Z,11.40
2018-09-04T07:46:12.092Z,11.53
2018-09-04T07:48:48.088Z,9.60
2018-09-04T07:51:24.116Z,11.30
2018-09-04T07:54:00.633Z,11.00
2018-09-04T07:56:36.570Z,11.55
2018-09-04T07:59:12.684Z,8.67
2018-09-04T08:01:48.926Z,9.33
2018-09-04T08:04:25.132Z,11.60
2018-09-04T08:07:01.691Z,10.05
2018-09-04T08:09:37.714Z,8.58
2018-09-04T08:12:13.400Z,9.20
2018-09-04T08:14:49.895Z,8.65
2018-09-04T08:17:26.284Z,9.43
2018-09-04T08:20:02.561Z,8.15
2018-09-04T08:22:38.561Z,9.35
2018-09-04T08:25:14.282Z,9.77
2018-09-04T08:27:50.306Z,10.43
2018-09-04T08:30:26.562Z,9.90
2018-09-04T08:33:02.616Z,8.67
2018-09-04T08:35:38.566Z,7.33
2018-09-04T08:38:14.877Z,9.30
2018-09-04T08:40:51.210Z,7.87
2018-09-04T08:43:27.236Z,7.90
2018-09-04T08:46:03.307Z,8.50
2018-09-04T08:48:39.248Z,10.10
2018-09-04T08:51:15.454Z,9.20
2018-09-04T08:53:51.311Z,8.50
2018-09-04T08:56:27.307Z,8.80
2018-09-04T08:59:03.497Z,7.97
2018-09-04T09:01:39.466Z,9.50
2018-09-04T09:04:15.626Z,7.00
2018-09-04T09:06:52.300Z,9.73
2018-09-04T09:09:28.303Z,8.13
2018-09-04T09:12:05.090Z,8.55
2018-09-04T09:14:41.201Z,10.30
2018-09-04T09:17:17.209Z,9.95
2018-09-04T09:19:53.313Z,9.85
2018-09-04T09:22:29.637Z,10.48
2018-09-04T09:25:06.052Z,8.13
2018-09-04T09:27:42.645Z,8.55
2018-09-04T09:30:19.146Z,8.03
2018-09-04T09:32:55.306Z,10.48
2018-09-04T09:35:31.495Z,8.83
2018-09-04T09:38:08.049Z,8.70
2018-09-04T09:40:44.339Z,7.78
2018-09-04T09:43:20.307Z,8.80
2018-09-04T09:45:56.318Z,8.48
2018-09-04T09:48:36.310Z,8.77
2018-09-04T09:51:13.485Z,11.40
2018-09-04T09:53:49.287Z,8.90
2018-09-04T09:56:25.578Z,9.28
2018-09-04T09:59:02.311Z,9.63
2018-09-04T10:01:42.297Z,10.13
2018-09-04T10:04:18.502Z,9.13
2018-09-04T10:06:54.540Z,8.70
2018-09-04T10:09:30.700Z,10.68
2018-09-04T10:12:07.073Z,8.85
2018-09-04T10:14:43.231Z,9.83
2018-09-04T10:17:20.070Z,10.05
2018-09-04T10:19:56.346Z,9.48
2018-09-04T10:22:32.321Z,11.47
2018-09-04T10:25:08.320Z,9.28
2018-09-04T10:27:44.327Z,10.50
2018-09-04T10:30:20.658Z,8.50
2018-09-04T10:32:57.133Z,10.70
2018-09-04T10:35:33.329Z,9.95
2018-09-04T10:38:09.209Z,10.20
2018-09-04T10:40:47.666Z,11.03
2018-09-04T10:43:24.502Z,11.30
2018-09-04T10:46:04.717Z,10.70
2018-09-04T10:48:41.083Z,11.20
2018-09-04T10:51:17.307Z,9.90
2018-09-04T10:53:54.002Z,9.45
2018-09-04T10:56:30.642Z,8.35
2018-09-04T10:59:06.522Z,7.90
2018-09-04T11:01:42.510Z,10.32
2018-09-04T11:04:18.513Z,10.95
2018-09-04T11:06:54.518Z,8.65
2018-09-04T11:09:30.979Z,8.40
2018-09-04T11:12:07.510Z,7.67
2018-09-04T11:14:43.565Z,8.90
2018-09-04T11:17:19.523Z,7.95
2018-09-04T11:19:55.526Z,9.58
2018-09-04T11:22:32.316Z,9.60
2018-09-04T11:25:08.349Z,10.20
2018-09-04T11:27:44.343Z,7.47
2018-09-04T11:30:20.254Z,9.63
2018-09-04T11:32:56.350Z,11.22
2018-09-04T11:35:32.513Z,8.65
2018-09-04T11:38:08.334Z,10.90
2018-09-04T11:40:44.468Z,7.10
2018-09-04T11:43:20.362Z,7.27
2018-09-04T11:45:56.611Z,9.57
2018-09-04T11:48:32.950Z,8.50
2018-09-04T11:51:10.554Z,9.65
2018-09-04T11:53:46.541Z,8.15
2018-09-04T11:56:23.367Z,8.87
2018-09-04T11:58:59.538Z,10.10
2018-09-04T12:01:36.324Z,9.50
2018-09-04T12:04:12.918Z,9.45
2018-09-04T12:06:49.166Z,8.33
2018-09-04T12:09:25.239Z,10.77
2018-09-04T12:12:01.530Z,8.35
2018-09-04T12:14:39.790Z,9.67
2018-09-04T12:17:16.261Z,10.20
2018-09-04T12:20:44.390Z,8.40
2018-09-04T12:23:20.548Z,8.57
2018-09-04T12:25:59.718Z,8.13
2018-09-04T12:28:35.994Z,10.03
2018-09-04T12:31:12.695Z,8.18
2018-09-04T12:33:49.009Z,9.47
2018-09-04T12:36:25.280Z,8.53
2018-09-04T12:39:01.370Z,8.93
2018-09-04T12:41:37.490Z,8.70
2018-09-04T12:44:13.589Z,11.50
2018-09-04T12:46:49.562Z,7.90
2018-09-04T12:49:25.563Z,8.50
2018-09-04T12:52:01.782Z,7.75
2018-09-04T12:54:37.566Z,9.37
2018-09-04T12:57:13.404Z,6.93
2018-09-04T12:59:49.573Z,9.88
2018-09-04T13:02:25.741Z,8.40
2018-09-04T13:05:02.028Z,9.48
2018-09-04T13:07:38.358Z,8.80
2018-09-04T13:10:14.360Z,8.78
2018-09-04T13:12:50.568Z,10.98
2018-09-04T13:15:26.969Z,10.60
2018-09-04T13:18:03.586Z,11.10
2018-09-04T13:20:39.714Z,10.65
2018-09-04T13:23:16.148Z,8.63
2018-09-04T13:25:52.385Z,8.75
2018-09-04T13:28:29.006Z,10.25
2018-09-04T13:31:05.745Z,8.60
2018-09-04T13:33:41.959Z,9.63
2018-09-04T13:36:18.035Z,8.23
2018-09-04T13:38:54.134Z,9.43
2018-09-04T13:41:33.842Z,14.30
2018-09-04T13:44:09.954Z,8.60
2018-09-04T13:46:46.252Z,7.75
2018-09-04T13:49:22.423Z,10.57
2018-09-04T13:51:58.391Z,9.53
2018-09-04T13:54:34.391Z,11.60
2018-09-04T13:57:10.369Z,7.97
2018-09-04T13:59:46.639Z,9.77
2018-09-04T14:02:22.314Z,8.73
2018-09-04T14:04:58.426Z,8.30
2018-09-04T14:07:34.398Z,10.58
2018-09-04T14:10:10.398Z,11.30
2018-09-04T14:12:46.397Z,8.45
2018-09-04T14:15:22.814Z,9.83
2018-09-04T14:17:58.966Z,12.03
2018-09-04T14:20:35.254Z,8.90
2018-09-04T14:23:11.400Z,11.22
2018-09-04T14:25:47.415Z,9.03
2018-09-04T14:28:40.966Z,8.50
2018-09-04T14:31:00.234Z,9.13
2018-09-04T14:33:36.441Z,7.53
2018-09-04T14:36:12.851Z,10.85
2018-09-04T14:38:49.191Z,8.15
2018-09-04T14:41:25.613Z,7.67
2018-09-04T14:44:01.640Z,7.25
2018-09-04T14:46:37.601Z,13.22
2018-09-04T14:49:13.609Z,16.80
2018-09-04T14:51:50.395Z,14.60
2018-09-04T14:54:27.976Z,14.30
2018-09-04T14:57:04.422Z,17.95
2018-09-04T14:59:40.655Z,13.65
2018-09-04T15:02:16.602Z,13.33
2018-09-04T15:04:52.428Z,13.13
2018-09-04T15:07:28.539Z,12.87
2018-09-04T15:10:04.380Z,13.55
2018-09-04T15:12:40.342Z,12.60
2018-09-04T15:15:16.427Z,10.30
2018-09-04T15:17:52.453Z,8.18
2018-09-04T15:20:28.404Z,7.42
2018-09-04T15:23:05.186Z,7.37
2018-09-04T15:25:41.378Z,6.23
2018-09-04T15:28:17.605Z,6.33
2018-09-04T15:30:53.606Z,5.97
2018-09-04T15:33:29.426Z,7.83
2018-09-04T15:36:05.428Z,7.03
2018-09-04T15:38:41.265Z,4.55
2018-09-04T15:41:17.553Z,5.55
2018-09-04T15:43:53.429Z,4.90
2018-09-04T15:46:29.433Z,5.55
2018-09-04T15:49:09.361Z,4.67
2018-09-04T15:51:45.425Z,5.65
2018-09-04T15:54:21.857Z,4.92
2018-09-04T15:56:58.448Z,4.87
2018-09-04T15:59:34.436Z,5.10
2018-09-04T16:02:11.338Z,3.92
2018-09-04T16:04:47.561Z,3.95
2018-09-04T16:07:24.145Z,4.92
2018-09-04T16:10:00.669Z,6.20
2018-09-04T16:12:36.822Z,5.00
2018-09-04T16:15:13.121Z,6.05
2018-09-04T16:17:49.682Z,4.75
2018-09-04T16:20:26.430Z,3.53
2018-09-04T16:23:02.452Z,4.70
2018-09-04T16:25:38.463Z,3.85
2018-09-04T16:28:14.458Z,3.12
2018-09-04T16:30:50.410Z,4.23
2018-09-04T16:33:26.446Z,3.90
2018-09-04T16:36:02.423Z,2.87
2018-09-04T16:38:38.450Z,3.65
2018-09-04T16:41:14.446Z,4.17
2018-09-04T16:43:50.450Z,4.08
2018-09-04T16:46:26.729Z,3.93
2018-09-04T16:49:02.917Z,4.30
2018-09-04T16:51:38.929Z,4.27
2018-09-04T16:54:15.150Z,3.20
2018-09-04T16:56:51.461Z,4.93
2018-09-04T16:59:27.433Z,3.40
2018-09-04T17:02:03.404Z,3.40
2018-09-04T17:04:39.343Z,3.22
2018-09-04T17:07:15.423Z,3.08
2018-09-04T17:09:51.427Z,2.60
2018-09-04T17:12:27.795Z,2.83
2018-09-04T17:15:04.449Z,3.08
2018-09-04T17:17:40.584Z,3.12
2018-09-04T17:20:17.462Z,2.90
2018-09-04T17:22:53.457Z,3.23
2018-09-04T17:25:29.800Z,3.60
2018-09-04T17:28:06.449Z,3.87
2018-09-04T17:30:42.289Z,4.23
2018-09-04T17:33:18.481Z,3.60
2018-09-04T17:35:54.798Z,3.50
2018-09-04T17:38:31.226Z,4.30
2018-09-04T17:41:07.363Z,4.20
2018-09-04T17:43:43.653Z,3.27
2018-09-04T17:46:19.674Z,4.00
2018-09-04T17:48:56.199Z,3.50
2018-09-04T17:51:32.650Z,3.33
2018-09-04T17:54:08.476Z,3.50
2018-09-04T17:56:44.475Z,3.60
2018-09-04T17:59:20.847Z,3.10
2018-09-04T18:01:57.422Z,3.10
2018-09-04T18:04:33.401Z,2.90
2018-09-04T18:07:09.600Z,2.80
2018-09-04T18:09:46.471Z,2.70
2018-09-04T18:12:22.527Z,3.00
2018-09-04T18:14:58.389Z,3.10
2018-09-04T18:17:34.603Z,3.00
2018-09-04T18:20:10.845Z,3.22
2018-09-04T18:22:47.382Z,3.60
2018-09-04T18:25:23.657Z,2.90
2018-09-04T18:27:59.654Z,3.27
2018-09-04T18:30:36.464Z,3.77
2018-09-04T18:33:12.245Z,3.50
2018-09-04T18:35:48.241Z,3.47
2018-09-04T18:38:25.041Z,3.20
2018-09-04T18:41:01.298Z,3.22
2018-09-04T18:43:37.492Z,3.50
2018-09-04T18:46:13.374Z,3.42
2018-09-04T18:48:49.414Z,3.70
2018-09-04T18:51:25.384Z,4.20
2018-09-04T18:54:01.362Z,4.03
2018-09-04T18:56:37.493Z,3.92
2018-09-04T18:59:13.481Z,4.03
2018-09-04T19:01:49.688Z,3.67
2018-09-04T19:04:26.117Z,3.90
2018-09-04T19:07:02.779Z,4.40
2018-09-04T19:09:38.857Z,3.87
2018-09-04T19:12:14.731Z,3.87
2018-09-04T19:14:50.688Z,3.90
2018-09-04T19:17:26.747Z,4.53
2018-09-04T19:20:02.789Z,3.92
2018-09-04T19:22:39.253Z,4.45
2018-09-04T19:25:15.244Z,3.72
2018-09-04T19:27:51.471Z,3.80
2018-09-04T19:30:27.654Z,3.87
2018-09-04T19:33:03.510Z,3.90
2018-09-04T19:35:39.494Z,3.63
2018-09-04T19:38:15.337Z,3.55
2018-09-04T19:40:51.481Z,3.77
2018-09-04T19:43:27.875Z,4.17
2018-09-04T19:46:03.874Z,3.90
2018-09-04T19:48:39.710Z,4.10
2018-09-04T19:51:15.446Z,4.10
2018-09-04T19:53:51.446Z,4.35
2018-09-04T19:56:27.752Z,3.67
2018-09-04T19:59:04.494Z,3.70
2018-09-04T20:01:41.921Z,4.27
2018-09-04T20:04:18.281Z,4.03
2018-09-04T20:06:55.190Z,3.90
2018-09-04T20:09:31.762Z,4.30
2018-09-04T20:12:07.893Z,4.03
2018-09-04T20:14:43.694Z,3.90
2018-09-04T20:17:19.757Z,3.80
2018-09-04T20:19:55.773Z,4.27
2018-09-04T20:22:31.694Z,4.20
2018-09-04T20:25:07.893Z,3.90
2018-09-04T20:27:44.222Z,3.95
2018-09-04T20:30:21.006Z,4.05
2018-09-04T20:32:57.517Z,3.95
2018-09-04T20:35:33.442Z,3.60
2018-09-04T20:38:09.488Z,3.60
2018-09-04T20:40:45.477Z,4.30
2018-09-04T20:43:21.505Z,4.03
2018-09-04T20:45:57.545Z,3.90
2018-09-04T20:48:33.524Z,3.75
2018-09-04T20:51:10.533Z,4.35
2018-09-04T20:53:47.092Z,3.92
2018-09-04T20:56:22.777Z,4.17
2018-09-04T20:59:12.713Z,3.80
2018-09-04T21:04:46.070Z,4.10
2018-09-04T21:08:24.985Z,3.60
2018-09-04T21:11:01.534Z,4.17
2018-09-04T21:13:37.780Z,4.80
2018-09-04T21:16:14.030Z,4.87
2018-09-04T21:18:50.175Z,4.00
2018-09-04T21:21:26.595Z,5.25
2018-09-04T21:24:02.615Z,4.40
2018-09-04T21:26:38.572Z,4.10
2018-09-04T21:29:14.820Z,4.30
2018-09-04T21:31:51.574Z,4.15
2018-09-04T21:34:27.528Z,4.10
2018-09-04T21:37:03.510Z,4.10
2018-09-04T21:39:39.545Z,4.50
2018-09-04T21:42:15.607Z,4.47
2018-09-04T21:44:51.748Z,4.00
2018-09-04T21:47:27.748Z,4.03
2018-09-04T21:50:04.553Z,3.80
2018-09-04T21:52:40.740Z,4.12
2018-09-04T21:55:16.734Z,4.25
2018-09-04T21:57:52.869Z,4.28
2018-09-04T22:00:30.749Z,4.30
2018-09-04T22:03:06.982Z,4.30
2018-09-04T22:05:44.838Z,4.28
2018-09-04T22:08:20.867Z,4.33
2018-09-04T22:10:57.337Z,3.85
2018-09-04T22:13:33.497Z,4.28
2018-09-04T22:16:09.568Z,4.03
2018-09-04T22:18:45.682Z,3.75
2018-09-04T22:21:21.563Z,4.10
2018-09-04T22:23:57.562Z,4.47
2018-09-04T22:26:33.556Z,4.45
2018-09-04T22:29:09.952Z,4.27
2018-09-04T22:31:45.717Z,4.20
2018-09-04T22:34:21.597Z,4.50
2018-09-04T22:36:58.013Z,4.03
2018-09-04T22:39:34.274Z,4.12
2018-09-04T22:42:10.485Z,4.45
2018-09-04T22:44:46.742Z,3.43
2018-09-04T22:47:22.901Z,4.05
2018-09-04T22:50:03.160Z,4.17
2018-09-04T22:52:39.477Z,4.45
2018-09-04T22:55:16.183Z,4.00
2018-09-04T22:57:52.038Z,4.33
2018-09-04T23:00:28.581Z,4.20
2018-09-04T23:03:05.578Z,4.03
2018-09-04T23:05:41.453Z,3.90
2018-09-04T23:08:17.581Z,4.22
2018-09-04T23:10:53.599Z,4.43
2018-09-04T23:13:29.589Z,4.40
2018-09-04T23:16:05.569Z,4.12
2018-09-04T23:18:41.577Z,4.50
2018-09-04T23:21:17.482Z,4.30
2018-09-04T23:23:53.596Z,3.80
2018-09-04T23:26:29.795Z,4.45
2018-09-04T23:29:06.344Z,3.87
2018-09-04T23:31:42.782Z,5.05
2018-09-04T23:34:18.965Z,4.15
2018-09-04T23:36:55.138Z,3.50
2018-09-04T23:42:05.590Z,4.10
2018-09-04T23:44:42.374Z,4.00
2018-09-04T23:47:19.594Z,3.67
2018-09-04T23:49:56.012Z,4.15
2018-09-04T23:52:32.594Z,3.50
2018-09-04T23:55:10.151Z,4.42
2018-09-04T23:57:46.353Z,3.72
